Time;durP1;ratioP1;P1;durP2;ratioP2;P2;SDS_P1;SDS_P2;PMS_P1;PMS_P2;Temp;Humidity;BMP_temperature;BMP_pressure;BME280_temperature;BME280_humidity;BME280_pressure;Samples;Min_cycle;Max_cycle;Signal;HPM_P1;HPM_P2
2023/05/16 00:01:12;;;;;;;12.98;4.43;;;9.70;99.90;;;;;;5013223;28;20474;-75
2023/05/16 00:03:38;;;;;;;14.02;4.50;;;9.70;99.90;;;;;;4995598;28;20056;-76
2023/05/16 00:06:04;;;;;;;13.13;4.35;;;9.70;99.90;;;;;;4995488;28;20045;-74
2023/05/16 00:08:30;;;;;;;18.83;5.35;;;9.70;99.90;;;;;;5012973;28;20081;-76
2023/05/16 00:10:56;;;;;;;15.77;4.57;;;9.70;99.90;;;;;;5013504;28;20158;-74
2023/05/16 00:13:24;;;;;;;13.02;4.50;;;9.60;99.90;;;;;;5015054;28;20042;-74
2023/05/16 00:15:58;;;;;;;12.60;4.60;;;9.60;99.90;;;;;;5014148;28;20117;-75
2023/05/16 00:18:24;;;;;;;10.82;4.40;;;9.60;99.90;;;;;;5014735;28;20054;-74
2023/05/16 00:20:51;;;;;;;11.57;4.53;;;9.60;99.90;;;;;;5013040;28;20391;-76
2023/05/16 00:23:16;;;;;;;12.23;3.70;;;9.60;99.90;;;;;;4995408;28;20050;-74
2023/05/16 00:25:42;;;;;;;9.25;4.00;;;9.50;99.90;;;;;;5012654;28;20041;-74
2023/05/16 00:28:08;;;;;;;10.70;4.20;;;9.50;99.90;;;;;;5012290;28;20042;-75
2023/05/16 00:30:34;;;;;;;11.48;4.30;;;9.50;99.90;;;;;;5012506;28;20049;-76
2023/05/16 00:33:00;;;;;;;11.80;4.75;;;9.50;99.90;;;;;;4995165;28;20050;-73
2023/05/16 00:35:26;;;;;;;9.75;3.35;;;9.40;99.90;;;;;;4995342;28;20382;-75
2023/05/16 00:37:52;;;;;;;8.45;3.60;;;9.40;99.90;;;;;;5012445;28;20045;-73
2023/05/16 00:40:18;;;;;;;11.02;4.45;;;9.40;99.90;;;;;;4995172;28;20049;-74
2023/05/16 00:42:44;;;;;;;15.43;3.80;;;9.40;99.90;;;;;;5012645;28;20062;-75
2023/05/16 00:45:10;;;;;;;12.63;4.13;;;9.40;99.90;;;;;;4979036;28;20058;-74
2023/05/16 00:47:36;;;;;;;7.90;3.72;;;9.40;99.90;;;;;;4978981;28;20093;-74
2023/05/16 00:50:02;;;;;;;11.32;4.10;;;9.40;99.90;;;;;;5012374;28;20073;-73
2023/05/16 00:52:30;;;;;;;11.57;3.90;;;9.40;99.90;;;;;;5012349;28;20050;-74
2023/05/16 00:54:56;;;;;;;9.38;3.90;;;9.40;99.90;;;;;;5012158;28;20046;-76
2023/05/16 00:57:22;;;;;;;7.32;2.92;;;9.30;99.90;;;;;;4995044;28;20410;-74
2023/05/16 00:59:48;;;;;;;10.85;4.10;;;9.30;99.90;;;;;;4995427;28;20057;-73
2023/05/16 01:02:14;;;;;;;7.07;3.58;;;9.30;99.90;;;;;;5012845;28;20065;-73
2023/05/16 01:04:41;;;;;;;8.90;3.25;;;9.20;99.90;;;;;;5015908;28;20057;-74
2023/05/16 01:07:07;;;;;;;8.55;3.35;;;9.20;99.90;;;;;;5015867;28;20112;-75
2023/05/16 01:09:33;;;;;;;7.47;4.13;;;9.20;99.90;;;;;;4998261;28;20049;-74
2023/05/16 01:12:17;;;;;;;9.55;3.83;;;9.10;99.90;;;;;;4998645;28;20118;-75
2023/05/16 01:15:12;;;;;;;8.02;3.47;;;9.10;99.90;;;;;;5015674;28;20559;-73
2023/05/16 01:18:07;;;;;;;8.32;3.58;;;9.10;99.90;;;;;;5014381;28;20467;-74
2023/05/16 01:20:54;;;;;;;10.45;3.97;;;9.00;99.90;;;;;;5016001;28;20081;-73
2023/05/16 01:23:31;;;;;;;9.73;3.78;;;9.00;99.90;;;;;;5015982;28;20049;-74
2023/05/16 01:26:07;;;;;;;9.35;4.10;;;9.10;99.90;;;;;;5015139;28;20463;-74
2023/05/16 01:28:34;;;;;;;9.98;3.38;;;9.10;99.90;;;;;;4998091;28;20399;-73
2023/05/16 01:31:00;;;;;;;11.57;4.20;;;9.20;99.90;;;;;;5015760;28;20049;-74
2023/05/16 01:33:26;;;;;;;8.27;3.40;;;9.20;99.90;;;;;;4998170;28;20045;-74
2023/05/16 01:36:11;;;;;;;7.45;3.42;;;9.20;99.90;;;;;;5015318;28;20084;-73
2023/05/16 01:38:56;;;;;;;8.70;3.53;;;9.20;99.90;;;;;;4997999;28;20467;-73
2023/05/16 01:41:34;;;;;;;12.57;4.03;;;9.10;99.90;;;;;;5014989;28;20053;-76
2023/05/16 01:44:04;;;;;;;7.78;4.07;;;9.10;99.90;;;;;;5015629;28;20379;-74
2023/05/16 01:46:36;;;;;;;8.93;3.45;;;9.00;99.90;;;;;;4997688;28;20510;-74
2023/05/16 01:49:35;;;;;;;11.40;3.33;;;9.00;99.90;;;;;;4997709;28;20398;-75
2023/05/16 01:52:06;;;;;;;8.52;3.08;;;9.00;99.90;;;;;;4997644;28;20112;-73
2023/05/16 01:54:36;;;;;;;8.45;3.33;;;8.90;99.90;;;;;;5015210;28;20107;-73
2023/05/16 01:57:04;;;;;;;9.50;3.60;;;8.90;99.90;;;;;;5015192;28;20049;-74
2023/05/16 01:59:31;;;;;;;11.95;3.45;;;8.90;99.90;;;;;;5014949;28;20514;-76
2023/05/16 02:01:58;;;;;;;11.25;3.03;;;8.80;99.90;;;;;;4981840;28;20046;-75
2023/05/16 02:04:24;;;;;;;7.30;3.10;;;8.80;99.90;;;;;;5014863;28;20089;-73
2023/05/16 02:06:50;;;;;;;8.07;3.22;;;7.80;99.90;;;;;;5014928;28;20096;-73
2023/05/16 02:09:16;;;;;;;9.73;3.55;;;8.70;99.90;;;;;;5014842;28;20129;-74
2023/05/16 02:11:42;;;;;;;11.70;3.10;;;8.70;99.90;;;;;;4997496;28;20477;-73
2023/05/16 02:14:08;;;;;;;7.60;3.05;;;8.70;99.90;;;;;;4981009;28;20064;-74
2023/05/16 02:16:35;;;;;;;12.68;4.90;;;8.70;99.90;;;;;;5014513;28;20049;-73
2023/05/16 02:19:01;;;;;;;9.10;3.28;;;8.70;99.90;;;;;;5015110;28;20463;-74
2023/05/16 02:21:27;;;;;;;10.18;3.63;;;8.60;99.90;;;;;;5015028;28;20049;-75
2023/05/16 02:23:52;;;;;;;6.60;3.38;;;8.60;99.90;;;;;;4997325;28;20058;-75
2023/05/16 02:26:18;;;;;;;11.43;3.83;;;8.60;99.90;;;;;;4996893;28;20100;-74
2023/05/16 02:28:44;;;;;;;11.52;3.28;;;8.50;99.90;;;;;;5014299;28;20118;-73
2023/05/16 02:31:10;;;;;;;11.07;3.17;;;8.50;99.90;;;;;;4997063;28;20089;-74
2023/05/16 02:33:36;;;;;;;9.70;3.58;;;8.50;99.90;;;;;;5014452;28;20050;-73
2023/05/16 02:36:02;;;;;;;6.43;3.00;;;8.50;99.90;;;;;;5014397;28;20038;-73
2023/05/16 02:38:28;;;;;;;8.85;2.90;;;8.40;99.90;;;;;;5014562;28;20060;-73
2023/05/16 02:40:53;;;;;;;7.43;2.83;;;8.40;99.90;;;;;;5014205;28;20128;-73
2023/05/16 02:43:19;;;;;;;8.32;3.30;;;8.40;99.90;;;;;;4996844;28;20053;-73
2023/05/16 02:45:44;;;;;;;6.20;3.40;;;8.40;99.90;;;;;;5014104;28;20050;-73
2023/05/16 02:48:10;;;;;;;9.10;3.42;;;8.40;99.90;;;;;;5014276;28;20053;-75
2023/05/16 02:50:39;;;;;;;11.90;3.78;;;8.40;99.90;;;;;;4996950;28;20052;-75
2023/05/16 02:53:05;;;;;;;11.32;3.95;;;8.50;99.90;;;;;;5013870;28;20046;-74
2023/05/16 02:55:30;;;;;;;6.88;3.63;;;8.60;99.90;;;;;;4980240;28;20464;-75
2023/05/16 02:57:56;;;;;;;6.65;3.67;;;8.60;99.90;;;;;;5013923;28;20045;-73
2023/05/16 03:00:22;;;;;;;12.73;3.20;;;8.60;99.90;;;;;;5014080;28;20428;-74
2023/05/16 03:02:48;;;;;;;9.75;3.60;;;8.40;99.90;;;;;;4996888;28;20082;-73
2023/05/16 03:05:14;;;;;;;7.32;3.05;;;8.50;99.90;;;;;;4996395;28;20045;-73
2023/05/16 03:07:40;;;;;;;9.13;3.70;;;8.50;99.90;;;;;;4996890;28;20054;-73
2023/05/16 03:10:06;;;;;;;8.20;3.30;;;8.20;99.90;;;;;;5014054;28;20561;-74
2023/05/16 03:12:32;;;;;;;5.55;3.17;;;8.40;99.90;;;;;;4996290;28;20139;-75
2023/05/16 03:14:59;;;;;;;7.15;3.05;;;8.40;99.90;;;;;;4996475;28;20062;-74
2023/05/16 03:17:25;;;;;;;9.02;3.35;;;8.30;99.90;;;;;;5014209;28;20046;-74
2023/05/16 03:19:51;;;;;;;7.93;3.13;;;8.30;99.90;;;;;;5013846;28;20050;-73
2023/05/16 03:22:16;;;;;;;7.85;2.85;;;8.30;99.90;;;;;;4996737;28;20152;-74
2023/05/16 03:24:43;;;;;;;6.72;3.67;;;8.30;99.90;;;;;;4980771;28;20072;-75
2023/05/16 03:27:10;;;;;;;9.15;3.33;;;8.30;99.90;;;;;;4996486;28;20102;-74
2023/05/16 03:29:36;;;;;;;12.25;3.20;;;8.30;99.90;;;;;;5013704;28;20096;-73
2023/05/16 03:32:02;;;;;;;8.13;2.55;;;8.40;99.90;;;;;;4996327;28;20041;-73
2023/05/16 03:34:28;;;;;;;6.65;3.30;;;8.20;99.90;;;;;;5014510;28;20050;-74
2023/05/16 03:36:54;;;;;;;6.20;3.58;;;8.40;99.90;;;;;;4981860;28;20042;-74
2023/05/16 03:39:20;;;;;;;9.00;3.47;;;8.40;99.90;;;;;;5014505;28;20065;-73
2023/05/16 03:41:46;;;;;;;7.53;2.90;;;8.30;99.90;;;;;;5014679;28;20046;-73
2023/05/16 03:44:11;;;;;;;6.75;3.42;;;8.30;99.90;;;;;;4981245;28;20050;-73
2023/05/16 03:46:37;;;;;;;11.15;3.65;;;8.30;99.90;;;;;;4980068;28;20140;-76
2023/05/16 03:49:03;;;;;;;9.00;3.80;;;8.20;99.90;;;;;;4995742;28;20053;-75
2023/05/16 03:51:29;;;;;;;7.65;3.42;;;8.20;99.90;;;;;;5013357;28;20137;-74
2023/05/16 03:53:55;;;;;;;6.50;2.65;;;8.20;99.90;;;;;;5013390;28;20178;-74
2023/05/16 03:56:20;;;;;;;8.25;3.40;;;8.10;99.90;;;;;;5012822;28;20048;-75
2023/05/16 03:58:47;;;;;;;8.68;3.10;;;8.10;99.90;;;;;;5012656;28;20487;-73
2023/05/16 04:01:13;;;;;;;10.38;3.67;;;8.10;99.90;;;;;;5012868;28;20050;-73
2023/05/16 04:03:38;;;;;;;6.75;3.30;;;8.10;99.90;;;;;;5012866;28;20046;-74
2023/05/16 04:06:05;;;;;;;7.13;3.22;;;8.10;99.90;;;;;;5012547;28;20048;-74
2023/05/16 04:08:31;;;;;;;14.48;3.95;;;8.10;99.90;;;;;;5012732;28;20077;-73
2023/05/16 04:10:57;;;;;;;8.63;4.05;;;8.10;99.90;;;;;;4995594;28;20054;-73
2023/05/16 04:13:23;;;;;;;8.18;3.13;;;8.10;99.90;;;;;;5012675;28;20050;-74
2023/05/16 04:15:48;;;;;;;6.88;3.85;;;6.80;99.90;;;;;;5013967;28;20081;-74
2023/05/16 04:18:14;;;;;;;8.95;3.90;;;8.20;99.90;;;;;;5015646;28;20050;-74
2023/05/16 04:20:41;;;;;;;11.35;3.35;;;8.20;99.90;;;;;;5013702;28;20100;-73
2023/05/16 04:23:10;;;;;;;7.50;3.28;;;8.20;99.90;;;;;;5012680;28;20046;-74
2023/05/16 04:25:36;;;;;;;9.38;3.65;;;8.20;99.90;;;;;;5012574;28;20117;-74
2023/05/16 04:28:02;;;;;;;12.70;3.55;;;8.20;99.90;;;;;;5012644;28;20104;-73
2023/05/16 04:30:28;;;;;;;8.05;3.70;;;8.20;99.90;;;;;;5012562;28;20050;-73
2023/05/16 04:32:53;;;;;;;6.30;3.28;;;8.20;99.90;;;;;;5012475;28;20077;-76
2023/05/16 04:35:20;;;;;;;8.25;3.20;;;8.20;99.90;;;;;;4994937;28;20048;-73
2023/05/16 04:37:46;;;;;;;8.85;3.53;;;8.20;99.90;;;;;;5015353;28;20141;-74
2023/05/16 04:40:13;;;;;;;7.90;3.13;;;8.20;99.90;;;;;;5001824;28;20104;-74
2023/05/16 04:42:38;;;;;;;6.25;2.83;;;8.20;99.90;;;;;;5016981;28;20519;-73
2023/05/16 04:45:05;;;;;;;7.20;3.05;;;8.30;99.90;;;;;;5016327;28;20054;-74
2023/05/16 04:47:31;;;;;;;10.48;3.28;;;8.30;99.90;;;;;;4998807;28;20057;-75
2023/05/16 04:49:57;;;;;;;7.97;3.55;;;8.30;99.90;;;;;;5016452;28;20081;-74
2023/05/16 04:52:23;;;;;;;10.32;3.55;;;8.30;99.90;;;;;;4998640;28;20085;-75
2023/05/16 04:54:51;;;;;;;9.10;3.70;;;8.30;99.90;;;;;;5016066;28;20050;-74
2023/05/16 04:57:17;;;;;;;8.13;3.75;;;8.40;99.90;;;;;;5015833;28;20054;-77
2023/05/16 04:59:43;;;;;;;7.40;3.45;;;8.40;99.90;;;;;;5015977;28;20046;-78
2023/05/16 05:02:09;;;;;;;9.55;3.35;;;8.50;99.90;;;;;;5015954;28;20046;-76
2023/05/16 05:04:34;;;;;;;9.02;3.60;;;8.50;99.90;;;;;;4998244;28;20041;-76
2023/05/16 05:07:00;;;;;;;7.63;3.25;;;8.60;99.90;;;;;;5015682;28;20096;-75
2023/05/16 05:09:26;;;;;;;5.97;3.05;;;8.60;99.90;;;;;;5016101;28;20089;-77
2023/05/16 05:11:52;;;;;;;6.47;3.10;;;8.70;99.90;;;;;;5015857;28;20518;-76
2023/05/16 05:14:17;;;;;;;9.70;3.60;;;8.80;99.90;;;;;;5015591;28;20046;-76
2023/05/16 05:16:43;;;;;;;6.32;3.42;;;8.90;99.90;;;;;;5016086;28;20041;-76
2023/05/16 05:19:09;;;;;;;8.90;2.92;;;9.00;99.90;;;;;;4998174;28;20050;-76
2023/05/16 05:21:35;;;;;;;10.20;3.33;;;9.10;99.90;;;;;;4998030;28;20046;-76
2023/05/16 05:24:00;;;;;;;9.45;4.10;;;8.40;99.90;;;;;;5015610;28;20058;-75
2023/05/16 05:26:27;;;;;;;7.53;2.90;;;9.30;99.90;;;;;;4997892;28;20046;-75
2023/05/16 05:28:53;;;;;;;5.50;2.63;;;9.40;99.90;;;;;;5015290;28;20053;-76
2023/05/16 05:31:19;;;;;;;7.95;3.28;;;9.40;99.90;;;;;;4998405;28;20052;-76
2023/05/16 05:33:45;;;;;;;8.15;3.35;;;9.40;99.90;;;;;;4997791;28;20135;-76
2023/05/16 05:36:11;;;;;;;6.82;2.92;;;9.50;99.90;;;;;;5015490;28;20041;-76
2023/05/16 05:38:37;;;;;;;8.43;2.90;;;9.50;99.90;;;;;;4998181;28;20057;-75
2023/05/16 05:41:04;;;;;;;12.52;4.28;;;9.60;99.90;;;;;;4997677;28;20055;-76
2023/05/16 05:43:30;;;;;;;6.47;2.83;;;9.60;99.90;;;;;;5015375;28;20197;-75
2023/05/16 05:45:55;;;;;;;5.70;2.90;;;9.60;99.90;;;;;;5014862;28;20049;-76
2023/05/16 05:48:21;;;;;;;8.85;3.83;;;9.60;99.90;;;;;;5014541;28;20060;-77
2023/05/16 05:50:47;;;;;;;10.45;3.20;;;9.70;99.90;;;;;;5015123;28;20057;-76
2023/05/16 05:53:13;;;;;;;8.15;3.22;;;9.80;99.90;;;;;;5015149;28;20050;-76
2023/05/16 05:55:41;;;;;;;6.43;2.83;;;9.80;99.90;;;;;;5015344;28;20069;-76
2023/05/16 05:58:09;;;;;;;11.82;3.40;;;9.90;99.90;;;;;;5015452;28;20050;-77
2023/05/16 06:00:35;;;;;;;9.75;3.00;;;10.00;99.90;;;;;;5014681;28;20046;-76
2023/05/16 06:03:01;;;;;;;6.20;2.80;;;10.10;99.90;;;;;;5014940;28;20084;-75
2023/05/16 06:05:26;;;;;;;6.15;2.75;;;10.10;99.90;;;;;;4997923;28;20042;-75
2023/05/16 06:07:52;;;;;;;8.63;2.80;;;10.30;99.90;;;;;;5014784;28;20061;-75
2023/05/16 06:10:17;;;;;;;14.38;3.28;;;10.30;99.90;;;;;;5015035;28;20049;-76
2023/05/16 06:12:43;;;;;;;7.55;3.10;;;10.40;99.90;;;;;;5014911;28;20490;-76
2023/05/16 06:15:09;;;;;;;7.93;2.90;;;10.50;99.90;;;;;;5014899;28;20547;-76
2023/05/16 06:17:35;;;;;;;7.05;2.45;;;10.70;99.90;;;;;;5014836;28;20080;-77
2023/05/16 06:20:01;;;;;;;10.52;3.22;;;10.80;99.90;;;;;;5015003;28;20518;-76
2023/05/16 06:22:26;;;;;;;6.72;3.05;;;11.00;99.90;;;;;;4997479;28;20053;-75
2023/05/16 06:24:52;;;;;;;10.40;3.63;;;11.20;99.90;;;;;;4997096;28;20057;-75
2023/05/16 06:27:18;;;;;;;6.10;3.30;;;11.40;99.90;;;;;;5014746;28;20041;-76
2023/05/16 06:29:43;;;;;;;6.15;2.85;;;11.60;99.90;;;;;;5014676;28;20046;-76
2023/05/16 06:32:09;;;;;;;5.28;2.58;;;12.00;99.90;;;;;;5014360;28;20042;-76
2023/05/16 06:34:35;;;;;;;6.28;2.60;;;12.30;99.90;;;;;;5014829;28;20479;-75
2023/05/16 06:37:02;;;;;;;9.00;1.83;;;12.40;99.90;;;;;;5016095;28;20046;-75
2023/05/16 06:39:29;;;;;;;5.72;2.47;;;12.70;99.90;;;;;;5019139;28;20467;-75
2023/05/16 06:41:55;;;;;;;7.18;2.28;;;13.80;99.90;;;;;;5018647;28;20100;-75
2023/05/16 06:44:22;;;;;;;5.88;1.92;;;14.70;99.90;;;;;;5002547;28;20053;-76
2023/05/16 06:46:48;;;;;;;6.10;1.67;;;15.00;99.90;;;;;;5001778;28;20470;-75
2023/05/16 06:49:14;;;;;;;8.25;2.10;;;14.40;99.90;;;;;;5002191;28;20188;-76
2023/05/16 06:51:40;;;;;;;5.82;1.98;;;14.00;99.90;;;;;;4998883;28;20526;-76
2023/05/16 06:54:06;;;;;;;4.30;1.90;;;13.60;99.90;;;;;;5022011;28;20049;-76
2023/05/16 06:56:31;;;;;;;4.70;1.80;;;13.30;99.90;;;;;;5004586;28;20103;-76
2023/05/16 06:58:57;;;;;;;6.00;2.08;;;13.00;99.90;;;;;;5003399;28;20052;-77
2023/05/16 07:01:23;;;;;;;1.90;1.45;;;13.00;99.90;;;;;;5015532;28;20056;-76
2023/05/16 07:03:49;;;;;;;4.63;1.70;;;13.60;99.90;;;;;;5018175;28;20050;-76
2023/05/16 07:06:15;;;;;;;4.85;2.22;;;14.30;99.90;;;;;;5018457;28;20133;-76
2023/05/16 07:08:40;;;;;;;4.78;1.65;;;15.20;99.90;;;;;;5017148;28;20085;-76
2023/05/16 07:11:06;;;;;;;3.17;1.67;;;15.50;98.50;;;;;;4997927;28;20108;-75
2023/05/16 07:13:32;;;;;;;3.05;1.50;;;15.70;96.80;;;;;;5013831;28;20049;-75
2023/05/16 07:15:57;;;;;;;5.50;1.58;;;15.90;95.60;;;;;;5013792;28;20046;-77
2023/05/16 07:18:23;;;;;;;5.93;1.35;;;16.00;96.10;;;;;;5013827;28;20056;-74
2023/05/16 07:20:54;;;;;;;3.83;1.70;;;15.50;97.00;;;;;;5123540;27;1271842;-76
2023/05/16 07:23:19;;;;;;;4.70;1.58;;;14.70;98.00;;;;;;5157346;27;20467;-76
2023/05/16 07:25:45;;;;;;;3.35;1.67;;;14.10;97.90;;;;;;5154889;27;20046;-77
2023/05/16 07:28:11;;;;;;;2.40;1.35;;;14.10;97.80;;;;;;5158930;27;20062;-78
2023/05/16 07:30:36;;;;;;;3.50;1.35;;;14.90;98.20;;;;;;5155788;27;20106;-79
2023/05/16 07:33:02;;;;;;;4.53;2.08;;;15.40;97.60;;;;;;5154929;27;20046;-76
2023/05/16 07:35:28;;;;;;;8.05;1.90;;;15.80;94.50;;;;;;5149237;27;20146;-73
2023/05/16 07:37:53;;;;;;;3.40;1.27;;;15.80;93.40;;;;;;5131271;27;20760;-75
2023/05/16 07:40:24;;;;;;;5.38;2.00;;;16.70;97.10;;;;;;5152291;27;20102;-76
2023/05/16 07:42:50;;;;;;;3.97;1.90;;;17.70;97.00;;;;;;5142540;27;20051;-77
2023/05/16 07:45:16;;;;;;;2.88;1.50;;;18.00;94.00;;;;;;5153903;27;20054;-77
2023/05/16 07:47:42;;;;;;;3.15;1.90;;;17.70;94.70;;;;;;5145836;27;20047;-75
2023/05/16 07:50:08;;;;;;;4.72;2.05;;;16.90;93.30;;;;;;5130778;27;20043;-77
2023/05/16 07:52:33;;;;;;;5.78;1.92;;;16.80;95.70;;;;;;5146223;27;20050;-77
2023/05/16 07:54:59;;;;;;;5.78;2.20;;;16.20;95.70;;;;;;5148877;27;20045;-76
2023/05/16 07:57:26;;;;;;;5.38;1.92;;;15.60;96.80;;;;;;5148445;27;20486;-77
2023/05/16 07:59:52;;;;;;;5.90;2.10;;;14.70;96.50;;;;;;5149255;27;20038;-76
2023/05/16 08:02:18;;;;;;;4.03;1.65;;;15.10;96.60;;;;;;5133722;27;20062;-77
2023/05/16 08:04:43;;;;;;;7.78;2.30;;;16.10;97.00;;;;;;5127270;27;20035;-76
2023/05/16 08:07:09;;;;;;;8.23;2.20;;;15.90;95.40;;;;;;5143244;27;20041;-76
2023/05/16 08:09:35;;;;;;;6.93;1.98;;;15.00;95.60;;;;;;5150477;27;20053;-76
2023/05/16 08:12:02;;;;;;;6.85;2.58;;;15.60;97.00;;;;;;5138718;27;20042;-76
2023/05/16 08:14:30;;;;;;;2.17;1.55;;;16.60;96.40;;;;;;5158817;27;20054;-77
2023/05/16 08:16:58;;;;;;;6.30;1.92;;;17.60;94.20;;;;;;5151202;27;20047;-76
2023/05/16 08:19:23;;;;;;;5.32;1.98;;;16.80;92.60;;;;;;5138263;27;20043;-77
2023/05/16 08:21:49;;;;;;;5.90;2.83;;;16.50;93.90;;;;;;5137164;27;20081;-77
2023/05/16 08:24:15;;;;;;;5.20;1.95;;;16.10;92.80;;;;;;5154430;27;20042;-75
2023/05/16 08:26:40;;;;;;;5.70;1.77;;;16.10;91.90;;;;;;5146739;27;20055;-77
2023/05/16 08:29:06;;;;;;;5.68;1.98;;;16.70;92.00;;;;;;5120491;27;20082;-76
2023/05/16 08:31:32;;;;;;;4.53;1.42;;;17.20;92.40;;;;;;5137478;27;20043;-77
2023/05/16 08:33:57;;;;;;;3.15;1.70;;;16.90;92.40;;;;;;5108024;27;20084;-76
2023/05/16 08:36:23;;;;;;;4.10;1.73;;;16.80;91.80;;;;;;5136405;27;20050;-77
2023/05/16 08:38:49;;;;;;;5.88;1.75;;;17.30;92.40;;;;;;5112488;27;20039;-76
2023/05/16 08:41:15;;;;;;;4.55;1.33;;;16.60;91.70;;;;;;5109655;27;20043;-75
2023/05/16 08:43:40;;;;;;;4.63;1.30;;;15.00;96.00;;;;;;5130328;27;20043;-75
2023/05/16 08:46:07;;;;;;;2.63;1.25;;;14.00;97.40;;;;;;5128056;27;20051;-74
2023/05/16 08:48:35;;;;;;;6.22;1.70;;;13.40;99.60;;;;;;5131361;27;20054;-73
2023/05/16 08:51:02;;;;;;;1.40;1.13;;;13.50;99.90;;;;;;5136256;27;20118;-72
2023/05/16 08:53:37;;;;;;;3.78;1.42;;;14.70;99.90;;;;;;5119479;27;20985;-73
2023/05/16 08:56:04;;;;;;;5.57;1.67;;;15.90;99.90;;;;;;5125399;27;20695;-74
2023/05/16 08:58:30;;;;;;;2.88;1.45;;;16.60;98.50;;;;;;5138172;27;20087;-73
2023/05/16 09:00:56;;;;;;;3.45;1.65;;;17.30;98.20;;;;;;5117926;27;20139;-74
2023/05/16 09:03:23;;;;;;;5.40;1.38;;;17.00;96.80;;;;;;5126608;27;20047;-72
2023/05/16 09:05:49;;;;;;;5.28;2.00;;;17.60;97.80;;;;;;5130034;27;20587;-74
2023/05/16 09:08:15;;;;;;;6.15;1.95;;;17.90;96.30;;;;;;5120912;27;20129;-74
2023/05/16 09:10:41;;;;;;;3.58;1.70;;;17.20;93.10;;;;;;5112001;27;20163;-75
2023/05/16 09:13:06;;;;;;;6.63;1.63;;;17.20;95.60;;;;;;5137060;27;20073;-75
2023/05/16 09:15:33;;;;;;;5.68;1.85;;;16.30;95.60;;;;;;5129775;27;20035;-74
2023/05/16 09:18:03;;;;;;;3.92;1.73;;;15.40;95.80;;;;;;5141682;27;20117;-75
2023/05/16 09:20:30;;;;;;;6.03;2.33;;;15.40;96.20;;;;;;5127238;27;20055;-70
2023/05/16 09:22:59;;;;;;;4.63;1.92;;;15.70;95.20;;;;;;5130644;27;20047;-77
2023/05/16 09:25:27;;;;;;;7.10;1.90;;;16.20;95.80;;;;;;5110340;27;20047;-75
2023/05/16 09:27:54;;;;;;;3.25;1.83;;;16.10;95.00;;;;;;5132276;27;20080;-74
2023/05/16 09:30:27;;;;;;;8.98;2.22;;;16.10;94.70;;;;;;5123928;27;20043;-74
2023/05/16 09:32:53;;;;;;;5.68;1.50;;;16.80;93.90;;;;;;5132596;27;20051;-74
2023/05/16 09:35:20;;;;;;;9.02;1.90;;;17.00;93.40;;;;;;5130658;27;20047;-76
2023/05/16 09:37:47;;;;;;;2.90;1.45;;;17.30;90.90;;;;;;5123496;27;20054;-73
2023/05/16 09:40:14;;;;;;;3.47;1.70;;;17.10;92.30;;;;;;5136097;27;20050;-72
2023/05/16 09:42:40;;;;;;;4.95;1.67;;;17.50;92.60;;;;;;5110543;27;20043;-73
2023/05/16 09:45:10;;;;;;;2.40;1.20;;;18.00;91.30;;;;;;5135001;27;20491;-75
2023/05/16 09:47:44;;;;;;;5.90;1.65;;;17.70;91.80;;;;;;5137933;27;20127;-75
2023/05/16 09:50:10;;;;;;;4.95;1.95;;;17.60;90.00;;;;;;5114495;27;20103;-75
2023/05/16 09:52:36;;;;;;;3.53;1.75;;;16.50;89.90;;;;;;5110668;27;20051;-74
2023/05/16 09:55:06;;;;;;;5.20;1.90;;;15.90;91.30;;;;;;5104621;27;20072;-74
2023/05/16 09:57:32;;;;;;;3.85;2.17;;;15.70;91.90;;;;;;5104813;27;20778;-76
2023/05/16 10:00:00;;;;;;;3.08;1.40;;;15.80;93.00;;;;;;5124219;27;20055;-74
2023/05/16 10:02:26;;;;;;;6.68;2.53;;;15.90;93.10;;;;;;5120223;27;20070;-74
2023/05/16 10:04:52;;;;;;;4.20;1.85;;;16.30;92.30;;;;;;5123498;27;20161;-73
2023/05/16 10:07:20;;;;;;;4.18;1.65;;;16.50;92.50;;;;;;5125561;27;20775;-74
2023/05/16 10:09:46;;;;;;;5.40;2.20;;;16.60;93.10;;;;;;5124542;27;20055;-73
2023/05/16 10:12:13;;;;;;;4.10;1.75;;;16.70;91.90;;;;;;5123624;27;20772;-74
2023/05/16 10:14:41;;;;;;;9.52;2.03;;;15.80;91.50;;;;;;5134361;27;20152;-74
2023/05/16 10:17:10;;;;;;;6.32;1.70;;;15.50;93.70;;;;;;5138873;27;20254;-74
2023/05/16 10:19:38;;;;;;;8.20;2.38;;;15.10;94.30;;;;;;5139677;27;20477;-75
2023/05/16 10:22:06;;;;;;;3.88;1.60;;;15.00;94.60;;;;;;5138968;27;20054;-73
2023/05/16 10:24:44;;;;;;;7.07;1.83;;;15.60;93.80;;;;;;5135200;27;20123;-73
2023/05/16 10:27:11;;;;;;;4.57;1.85;;;16.40;92.60;;;;;;5114203;27;20082;-74
2023/05/16 10:29:38;;;;;;;3.33;1.30;;;16.80;92.30;;;;;;5111535;27;20046;-73
2023/05/16 10:32:05;;;;;;;2.03;1.40;;;16.80;90.60;;;;;;5109432;27;20054;-74
2023/05/16 10:34:31;;;;;;;3.65;1.95;;;16.60;91.30;;;;;;5121052;27;20042;-74
2023/05/16 10:36:58;;;;;;;3.20;1.70;;;15.90;91.80;;;;;;5123405;27;20153;-73
2023/05/16 10:39:25;;;;;;;4.47;1.70;;;15.30;94.10;;;;;;5127378;27;20046;-76
2023/05/16 10:41:51;;;;;;;10.77;2.35;;;14.70;96.90;;;;;;5128649;27;20050;-75
2023/05/16 10:44:17;;;;;;;7.15;1.90;;;14.40;97.30;;;;;;5127920;27;20078;-75
2023/05/16 10:46:43;;;;;;;3.08;1.30;;;14.70;98.30;;;;;;5116802;27;20125;-75
2023/05/16 10:49:25;;;;;;;4.50;1.65;;;15.60;97.50;;;;;;5136526;27;20053;-73
2023/05/16 10:52:11;;;;;;;8.38;1.92;;;15.90;96.30;;;;;;5124859;27;20047;-73
2023/05/16 10:54:42;;;;;;;5.60;2.05;;;16.00;95.20;;;;;;5126266;27;20772;-73
2023/05/16 10:57:10;;;;;;;5.55;2.38;;;15.60;95.30;;;;;;5111140;27;20069;-75
2023/05/16 10:59:44;;;;;;;4.22;1.65;;;15.70;96.30;;;;;;5135329;27;20637;-75
2023/05/16 11:02:38;;;;;;;5.85;1.88;;;15.60;95.30;;;;;;5123285;27;20038;-73
2023/05/16 11:05:05;;;;;;;6.05;2.00;;;15.60;94.60;;;;;;5134218;27;20757;-73
2023/05/16 11:07:38;;;;;;;7.68;1.77;;;15.40;93.70;;;;;;5110760;27;20053;-74
2023/05/16 11:10:14;;;;;;;4.25;1.95;;;14.70;93.40;;;;;;5125076;27;20076;-73
2023/05/16 11:12:50;;;;;;;8.70;1.90;;;14.60;94.60;;;;;;5109226;27;20055;-73
2023/05/16 11:15:26;;;;;;;3.22;1.88;;;15.00;94.80;;;;;;5129270;27;20109;-73
2023/05/16 11:18:06;;;;;;;4.30;2.10;;;15.10;93.40;;;;;;5136123;27;20103;-74
2023/05/16 11:20:34;;;;;;;3.80;1.70;;;15.30;92.70;;;;;;5127712;27;20058;-73
2023/05/16 11:23:15;;;;;;;4.55;1.85;;;15.60;93.50;;;;;;5132361;27;20055;-76
2023/05/16 11:25:44;;;;;;;5.07;1.60;;;15.60;93.20;;;;;;5114397;27;20611;-73
2023/05/16 11:28:12;;;;;;;4.43;2.45;;;15.60;92.60;;;;;;5126747;27;20309;-73
2023/05/16 11:30:43;;;;;;;4.10;1.70;;;15.50;91.70;;;;;;5135463;27;20309;-73
2023/05/16 11:33:09;;;;;;;7.25;2.08;;;15.40;92.20;;;;;;5107539;27;20331;-72
2023/05/16 11:35:35;;;;;;;4.97;2.15;;;15.30;91.50;;;;;;5128782;27;20130;-73
2023/05/16 11:38:01;;;;;;;5.63;1.92;;;15.30;91.60;;;;;;5123731;27;20067;-73
2023/05/16 11:40:27;;;;;;;5.03;2.15;;;17.00;92.20;;;;;;5132738;27;20389;-75
2023/05/16 11:42:53;;;;;;;3.75;2.17;;;15.80;91.10;;;;;;5119902;27;20051;-75
2023/05/16 11:45:21;;;;;;;2.80;1.88;;;15.80;90.50;;;;;;5133688;27;20471;-73
2023/05/16 11:47:48;;;;;;;6.85;2.08;;;15.60;90.70;;;;;;5108927;27;20050;-71
2023/05/16 11:50:17;;;;;;;3.85;2.22;;;15.50;90.80;;;;;;5128925;27;20039;-73
2023/05/16 11:52:45;;;;;;;6.47;2.17;;;15.30;91.30;;;;;;5132655;27;20072;-74
2023/05/16 11:55:11;;;;;;;7.82;2.63;;;15.30;91.20;;;;;;5127640;27;20046;-73
2023/05/16 11:57:43;;;;;;;6.15;2.70;;;15.20;91.30;;;;;;5124926;27;20046;-74
2023/05/16 12:00:18;;;;;;;8.52;2.83;;;15.00;92.00;;;;;;5132639;27;20039;-74
2023/05/16 12:02:48;;;;;;;5.70;2.80;;;15.00;92.30;;;;;;5125391;27;20043;-75
2023/05/16 12:05:15;;;;;;;6.43;2.88;;;14.90;93.50;;;;;;5133043;27;20047;-73
2023/05/16 12:07:46;;;;;;;4.95;2.60;;;15.20;93.30;;;;;;5120842;27;20099;-74
2023/05/16 12:10:13;;;;;;;6.97;3.33;;;15.20;93.60;;;;;;5127740;27;20583;-74
2023/05/16 12:12:41;;;;;;;8.93;3.53;;;15.40;92.60;;;;;;5142300;27;20103;-72
2023/05/16 12:15:08;;;;;;;5.32;2.53;;;15.40;92.30;;;;;;5137765;27;20066;-72
2023/05/16 12:17:39;;;;;;;6.55;3.00;;;15.30;91.80;;;;;;5131535;27;20043;-73
2023/05/16 12:20:10;;;;;;;5.20;3.03;;;15.30;91.50;;;;;;5113317;27;20059;-73
2023/05/16 12:22:45;;;;;;;5.45;3.13;;;15.10;91.60;;;;;;5133083;27;20051;-73
2023/05/16 12:25:42;;;;;;;7.05;3.33;;;14.90;92.60;;;;;;5133542;27;20093;-73
2023/05/16 12:28:08;;;;;;;10.35;2.92;;;15.00;93.70;;;;;;5130244;27;20062;-73
2023/05/16 12:30:34;;;;;;;6.60;2.90;;;15.10;93.00;;;;;;5138284;27;20043;-74
2023/05/16 12:33:03;;;;;;;3.40;2.55;;;15.30;93.20;;;;;;5123321;27;20127;-74
2023/05/16 12:35:31;;;;;;;7.68;3.10;;;15.50;93.10;;;;;;5131615;27;20042;-72
2023/05/16 12:37:56;;;;;;;9.30;2.90;;;15.50;93.30;;;;;;5130225;27;20064;-72
2023/05/16 12:40:22;;;;;;;4.82;2.75;;;15.50;93.30;;;;;;5138037;27;20486;-75
2023/05/16 12:42:52;;;;;;;6.72;3.38;;;15.10;92.70;;;;;;5102110;27;20166;-71
2023/05/16 12:45:18;;;;;;;7.10;2.70;;;14.90;91.70;;;;;;5134771;27;20529;-75
2023/05/16 12:47:44;;;;;;;6.68;2.85;;;14.90;92.90;;;;;;5125511;27;20046;-75
2023/05/16 12:50:15;;;;;;;6.18;2.53;;;15.10;92.80;;;;;;5106694;27;20047;-75
2023/05/16 12:52:51;;;;;;;6.72;2.75;;;15.30;93.00;;;;;;5140872;27;20097;-74